createdAt,value
2023-05-15T00:00:41.303Z,21.52
2023-05-15T00:01:41.280Z,21.51
2023-05-15T00:02:41.346Z,21.52
2023-05-15T00:03:41.375Z,21.51
2023-05-15T00:04:41.325Z,21.52
2023-05-15T00:05:41.285Z,21.51
2023-05-15T00:06:41.287Z,21.51
2023-05-15T00:07:41.290Z,21.51
2023-05-15T00:08:41.276Z,21.51
2023-05-15T00:09:41.264Z,21.51
2023-05-15T00:10:47.583Z,21.50
2023-05-15T00:11:42.281Z,21.50
2023-05-15T00:12:41.273Z,21.50
2023-05-15T00:13:41.302Z,21.51
2023-05-15T00:14:41.271Z,21.50
2023-05-15T00:15:41.312Z,21.50
2023-05-15T00:16:41.386Z,21.50
2023-05-15T00:17:41.295Z,21.49
2023-05-15T00:18:41.296Z,21.50
2023-05-15T00:19:41.267Z,21.51
2023-05-15T00:20:41.269Z,21.50
2023-05-15T00:21:41.274Z,21.50
2023-05-15T00:22:41.276Z,21.49
2023-05-15T00:23:41.263Z,21.49
2023-05-15T00:24:41.249Z,21.49
2023-05-15T00:25:41.336Z,21.49
2023-05-15T00:26:41.261Z,21.48
2023-05-15T00:27:41.292Z,21.49
2023-05-15T00:28:41.287Z,21.49
2023-05-15T00:29:41.288Z,21.49
2023-05-15T00:30:41.289Z,21.49
2023-05-15T00:31:41.337Z,21.49
2023-05-15T00:32:41.387Z,21.48
2023-05-15T00:33:41.297Z,21.49
2023-05-15T00:34:41.299Z,21.48
2023-05-15T00:35:41.311Z,21.48
2023-05-15T00:36:41.297Z,21.48
2023-05-15T00:37:41.333Z,21.48
2023-05-15T00:38:41.311Z,21.48
2023-05-15T00:39:41.304Z,21.48
2023-05-15T00:40:41.308Z,21.48
2023-05-15T00:41:41.319Z,21.48
2023-05-15T00:42:41.312Z,21.48
2023-05-15T00:43:41.314Z,21.47
2023-05-15T00:44:41.316Z,21.48
2023-05-15T00:45:41.335Z,21.47
2023-05-15T00:46:41.362Z,21.47
2023-05-15T00:47:41.376Z,21.47
2023-05-15T00:48:41.329Z,21.48
2023-05-15T00:49:41.336Z,21.47
2023-05-15T00:50:41.368Z,21.47
2023-05-15T00:51:41.367Z,21.48
2023-05-15T00:52:41.362Z,21.47
2023-05-15T00:53:41.383Z,21.46
2023-05-15T00:54:41.363Z,21.46
2023-05-15T00:55:41.369Z,21.47
2023-05-15T00:56:41.370Z,21.47
2023-05-15T00:57:41.375Z,21.47
2023-05-15T00:58:41.374Z,21.46
2023-05-15T00:59:41.378Z,21.47
2023-05-15T01:00:41.403Z,21.47
2023-05-15T01:01:41.393Z,21.46
2023-05-15T01:02:41.471Z,21.46
2023-05-15T01:03:41.429Z,21.46
2023-05-15T01:04:41.415Z,21.47
2023-05-15T01:05:41.405Z,21.46
2023-05-15T01:06:41.400Z,21.45
2023-05-15T01:07:41.406Z,21.46
2023-05-15T01:08:41.413Z,21.46
2023-05-15T01:09:41.425Z,21.46
2023-05-15T01:10:41.422Z,21.46
2023-05-15T01:11:41.412Z,21.45
2023-05-15T01:12:41.400Z,21.46
2023-05-15T01:13:41.409Z,21.45
2023-05-15T01:14:41.408Z,21.45
2023-05-15T01:15:41.405Z,21.45
2023-05-15T01:16:41.417Z,21.45
2023-05-15T01:17:41.443Z,21.45
2023-05-15T01:18:41.503Z,21.44
2023-05-15T01:19:41.579Z,21.44
2023-05-15T01:20:41.406Z,21.45
2023-05-15T01:21:41.409Z,21.44
2023-05-15T01:22:41.497Z,21.45
2023-05-15T01:23:41.420Z,21.44
2023-05-15T01:24:41.429Z,21.44
2023-05-15T01:25:41.431Z,21.44
2023-05-15T01:26:41.525Z,21.44
2023-05-15T01:27:41.449Z,21.44
2023-05-15T01:28:41.459Z,21.43
2023-05-15T01:29:41.482Z,21.43
2023-05-15T01:30:41.474Z,21.43
2023-05-15T01:31:41.546Z,21.43
2023-05-15T01:32:41.551Z,21.43
2023-05-15T01:33:41.499Z,21.43
2023-05-15T01:34:41.508Z,21.43
2023-05-15T01:35:41.566Z,21.43
2023-05-15T01:36:41.534Z,21.43
2023-05-15T01:37:41.536Z,21.43
2023-05-15T01:38:41.554Z,21.42
2023-05-15T01:39:41.548Z,21.43
2023-05-15T01:40:41.552Z,21.42
2023-05-15T01:41:41.565Z,21.43
2023-05-15T01:42:41.555Z,21.42
2023-05-15T01:43:41.582Z,21.43
2023-05-15T01:44:41.576Z,21.43
2023-05-15T01:45:41.588Z,21.43
2023-05-15T01:46:41.646Z,21.42
2023-05-15T01:47:41.614Z,21.43
2023-05-15T01:48:41.605Z,21.42
2023-05-15T01:49:41.625Z,21.41
2023-05-15T01:50:41.628Z,21.43
2023-05-15T01:51:41.641Z,21.41
2023-05-15T01:52:41.660Z,21.42
2023-05-15T01:53:41.664Z,21.41
2023-05-15T01:54:41.681Z,21.42
2023-05-15T01:55:41.701Z,21.41
2023-05-15T01:56:41.683Z,21.42
2023-05-15T01:57:41.693Z,21.41
2023-05-15T01:58:41.711Z,21.41
2023-05-15T01:59:41.707Z,21.41
2023-05-15T02:00:41.726Z,21.41
2023-05-15T02:01:41.801Z,21.42
2023-05-15T02:02:41.848Z,21.41
2023-05-15T02:03:41.768Z,21.41
2023-05-15T02:04:41.717Z,21.41
2023-05-15T02:05:41.717Z,21.41
2023-05-15T02:06:41.730Z,21.41
2023-05-15T02:07:41.723Z,21.40
2023-05-15T02:08:41.730Z,21.40
2023-05-15T02:09:41.722Z,21.40
2023-05-15T02:10:41.730Z,21.40
2023-05-15T02:11:41.725Z,21.40
2023-05-15T02:12:41.726Z,21.40
2023-05-15T02:13:41.739Z,21.40
2023-05-15T02:14:41.721Z,21.40
2023-05-15T02:15:41.712Z,21.40
2023-05-15T02:16:41.780Z,21.40
2023-05-15T02:17:41.741Z,21.39
2023-05-15T02:18:41.738Z,21.40
2023-05-15T02:19:41.719Z,21.40
2023-05-15T02:20:41.725Z,21.39
2023-05-15T02:21:41.721Z,21.40
2023-05-15T02:22:41.725Z,21.40
2023-05-15T02:23:41.734Z,21.39
2023-05-15T02:24:41.726Z,21.39
2023-05-15T02:25:41.727Z,21.38
2023-05-15T02:26:41.717Z,21.39
2023-05-15T02:27:41.721Z,21.39
2023-05-15T02:28:41.721Z,21.39
2023-05-15T02:29:41.725Z,21.39
2023-05-15T02:30:41.727Z,21.38
2023-05-15T02:31:41.745Z,21.38
2023-05-15T02:32:41.794Z,21.39
2023-05-15T02:33:41.725Z,21.38
2023-05-15T02:34:41.738Z,21.38
2023-05-15T02:35:41.759Z,21.38
2023-05-15T02:36:41.766Z,21.38
2023-05-15T02:37:41.767Z,21.38
2023-05-15T02:38:41.818Z,21.38
2023-05-15T02:39:41.769Z,21.38
2023-05-15T02:40:41.770Z,21.37
2023-05-15T02:41:41.778Z,21.37
2023-05-15T02:42:41.854Z,21.37
2023-05-15T02:43:41.793Z,21.37
2023-05-15T02:44:41.823Z,21.37
2023-05-15T02:45:41.852Z,21.36
2023-05-15T02:46:41.820Z,21.37
2023-05-15T02:47:41.810Z,21.38
2023-05-15T02:48:41.828Z,21.37
2023-05-15T02:49:41.816Z,21.37
2023-05-15T02:50:41.822Z,21.37
2023-05-15T02:51:41.865Z,21.37
2023-05-15T02:52:41.851Z,21.37
2023-05-15T02:53:41.870Z,21.37
2023-05-15T02:54:41.856Z,21.36
2023-05-15T02:55:41.859Z,21.37
2023-05-15T02:56:41.880Z,21.36
2023-05-15T02:57:41.862Z,21.36
2023-05-15T02:58:41.845Z,21.37
2023-05-15T02:59:41.846Z,21.36
2023-05-15T03:00:41.848Z,21.36
2023-05-15T03:01:41.918Z,21.37
2023-05-15T03:02:41.864Z,21.36
2023-05-15T03:03:41.841Z,21.36
2023-05-15T03:04:42.014Z,21.36
2023-05-15T03:05:41.912Z,21.37
2023-05-15T03:06:41.985Z,21.35
2023-05-15T03:07:41.975Z,21.35
2023-05-15T03:08:41.998Z,21.36
2023-05-15T03:09:42.049Z,21.35
2023-05-15T03:10:42.065Z,21.36
2023-05-15T03:11:42.098Z,21.35
2023-05-15T03:12:42.102Z,21.35
2023-05-15T03:13:42.132Z,21.35
2023-05-15T03:14:42.156Z,21.35
2023-05-15T03:15:42.178Z,21.35
2023-05-15T03:16:42.316Z,21.34
2023-05-15T03:17:42.267Z,21.35
2023-05-15T03:18:42.303Z,21.35
2023-05-15T03:19:42.281Z,21.35
2023-05-15T03:20:42.318Z,21.35
2023-05-15T03:21:42.336Z,21.35
2023-05-15T03:22:42.366Z,21.35
2023-05-15T03:23:42.431Z,21.35
2023-05-15T03:24:42.430Z,21.35
2023-05-15T03:25:42.456Z,21.35
2023-05-15T03:26:42.486Z,21.34
2023-05-15T03:27:42.510Z,21.34
2023-05-15T03:28:42.567Z,21.34
2023-05-15T03:29:42.556Z,21.34
2023-05-15T03:30:42.577Z,21.35
2023-05-15T03:31:42.658Z,21.34
2023-05-15T03:32:42.672Z,21.34
2023-05-15T03:33:42.664Z,21.34
2023-05-15T03:34:42.696Z,21.34
2023-05-15T03:35:42.726Z,21.34
2023-05-15T03:36:42.765Z,21.34
2023-05-15T03:37:42.789Z,21.34
2023-05-15T03:38:42.822Z,21.34
2023-05-15T03:39:42.844Z,21.34
2023-05-15T03:40:42.873Z,21.34
2023-05-15T03:41:42.918Z,21.33
2023-05-15T03:42:42.947Z,21.33
2023-05-15T03:43:42.972Z,21.33
2023-05-15T03:44:43.003Z,21.33
2023-05-15T03:45:43.034Z,21.33
2023-05-15T03:46:43.095Z,21.33
2023-05-15T03:47:43.172Z,21.32
2023-05-15T03:48:43.105Z,21.33
2023-05-15T03:49:43.137Z,21.32
2023-05-15T03:50:43.155Z,21.33
2023-05-15T03:51:43.205Z,21.33
2023-05-15T03:52:43.277Z,21.32
2023-05-15T03:53:43.257Z,21.32
2023-05-15T03:54:43.297Z,21.32
2023-05-15T03:55:43.307Z,21.32
2023-05-15T03:56:43.364Z,21.32
2023-05-15T03:57:43.382Z,21.32
2023-05-15T03:58:43.410Z,21.32
2023-05-15T03:59:43.435Z,21.32
2023-05-15T04:00:43.475Z,21.32
2023-05-15T04:01:55.767Z,21.32
2023-05-15T04:02:44.584Z,21.31
2023-05-15T04:03:43.618Z,21.32
2023-05-15T04:04:43.522Z,21.32
2023-05-15T04:05:43.641Z,21.32
2023-05-15T04:06:43.528Z,21.32
2023-05-15T04:07:43.539Z,21.31
2023-05-15T04:08:43.547Z,21.32
2023-05-15T04:09:43.557Z,21.32
2023-05-15T04:10:43.566Z,21.32
2023-05-15T04:11:43.560Z,21.31
2023-05-15T04:12:43.569Z,21.31
2023-05-15T04:13:43.621Z,21.31
2023-05-15T04:14:43.608Z,21.31
2023-05-15T04:15:43.579Z,21.32
2023-05-15T04:16:43.645Z,21.31
2023-05-15T04:17:43.612Z,21.31
2023-05-15T04:18:43.620Z,21.31
2023-05-15T04:19:43.604Z,21.31
2023-05-15T04:20:43.609Z,21.32
2023-05-15T04:21:43.632Z,21.31
2023-05-15T04:22:43.669Z,21.32
2023-05-15T04:23:43.646Z,21.31
2023-05-15T04:24:43.647Z,21.31
2023-05-15T04:25:43.664Z,21.31
2023-05-15T04:26:43.767Z,21.32
2023-05-15T04:27:43.724Z,21.31
2023-05-15T04:28:52.337Z,21.31
2023-05-15T04:29:44.680Z,21.31
2023-05-15T04:30:43.697Z,21.31
2023-05-15T04:31:43.790Z,21.31
2023-05-15T04:32:43.730Z,21.31
2023-05-15T04:33:43.671Z,21.29
2023-05-15T04:34:43.675Z,21.31
2023-05-15T04:35:43.697Z,21.31
2023-05-15T04:36:43.690Z,21.31
2023-05-15T04:37:43.686Z,21.30
2023-05-15T04:38:43.699Z,21.32
2023-05-15T04:39:43.699Z,21.31
2023-05-15T04:40:43.706Z,21.31
2023-05-15T04:41:43.703Z,21.32
2023-05-15T04:42:43.726Z,21.31
2023-05-15T04:43:43.696Z,21.31
2023-05-15T04:44:43.721Z,21.31
2023-05-15T04:45:43.721Z,21.31
2023-05-15T04:46:43.720Z,21.30
2023-05-15T04:47:43.748Z,21.31
2023-05-15T04:48:43.718Z,21.31
2023-05-15T04:49:43.723Z,21.31
2023-05-15T04:50:43.727Z,21.31
2023-05-15T04:51:43.730Z,21.30
2023-05-15T04:52:43.750Z,21.30
2023-05-15T04:53:43.776Z,21.30
2023-05-15T04:54:43.818Z,21.30
2023-05-15T04:55:43.822Z,21.31
2023-05-15T04:56:43.848Z,21.30
2023-05-15T04:57:43.870Z,21.30
2023-05-15T04:58:43.913Z,21.31
2023-05-15T04:59:43.907Z,21.30
2023-05-15T05:00:43.933Z,21.31
2023-05-15T05:01:44.038Z,21.30
2023-05-15T05:02:44.012Z,21.31
2023-05-15T05:03:44.061Z,21.30
2023-05-15T05:04:44.037Z,21.31
2023-05-15T05:05:44.054Z,21.30
2023-05-15T05:06:44.126Z,21.30
2023-05-15T05:07:44.092Z,21.30
2023-05-15T05:08:44.090Z,21.31
2023-05-15T05:09:44.093Z,21.31
2023-05-15T05:10:44.118Z,21.30
2023-05-15T05:11:44.285Z,21.31
2023-05-15T05:12:44.148Z,21.30
2023-05-15T05:13:44.148Z,21.31
2023-05-15T05:14:44.151Z,21.30
2023-05-15T05:15:44.191Z,21.31
2023-05-15T05:16:44.188Z,21.31
2023-05-15T05:17:44.254Z,21.30
2023-05-15T05:18:44.217Z,21.30
2023-05-15T05:19:44.210Z,21.30
2023-05-15T05:20:44.239Z,21.29
2023-05-15T05:21:44.223Z,21.30
2023-05-15T05:22:44.232Z,21.30
2023-05-15T05:23:44.238Z,21.30
2023-05-15T05:24:44.245Z,21.31
2023-05-15T05:25:44.255Z,21.31
2023-05-15T05:26:44.273Z,21.30
2023-05-15T05:27:44.278Z,21.30
2023-05-15T05:28:44.315Z,21.30
2023-05-15T05:29:44.317Z,21.30
2023-05-15T05:30:44.306Z,21.30
2023-05-15T05:31:44.392Z,21.30
2023-05-15T05:32:44.417Z,21.30
2023-05-15T05:33:44.391Z,21.31
2023-05-15T05:34:44.430Z,21.30
2023-05-15T05:35:44.455Z,21.31
2023-05-15T05:36:44.463Z,21.34
2023-05-15T05:37:44.447Z,21.37
2023-05-15T05:38:44.452Z,21.40
2023-05-15T05:39:44.460Z,21.45
2023-05-15T05:40:44.436Z,21.49
2023-05-15T05:41:44.456Z,21.51
2023-05-15T05:42:44.427Z,21.55
2023-05-15T05:43:44.427Z,21.59
2023-05-15T05:44:44.426Z,21.64
2023-05-15T05:45:44.491Z,21.68
2023-05-15T05:46:44.459Z,21.70
2023-05-15T05:47:44.447Z,21.74
2023-05-15T05:48:44.439Z,21.76
2023-05-15T05:49:44.405Z,21.79
2023-05-15T05:50:44.516Z,21.82
2023-05-15T05:51:44.401Z,21.84
2023-05-15T05:52:44.386Z,21.86
2023-05-15T05:53:44.379Z,21.90
2023-05-15T05:54:44.422Z,21.92
2023-05-15T05:55:44.381Z,21.94
2023-05-15T05:56:44.385Z,21.96
2023-05-15T05:57:44.378Z,21.98
2023-05-15T05:58:44.460Z,22.01
2023-05-15T05:59:44.487Z,22.03
2023-05-15T06:00:44.552Z,22.04
2023-05-15T06:01:44.688Z,22.05
2023-05-15T06:02:44.783Z,22.07
2023-05-15T06:03:44.810Z,22.10
2023-05-15T06:04:44.739Z,22.12
2023-05-15T06:05:44.797Z,22.14
2023-05-15T06:06:44.849Z,22.15
2023-05-15T06:07:44.838Z,22.16
2023-05-15T06:08:44.833Z,22.19
2023-05-15T06:09:44.812Z,22.20
2023-05-15T06:10:44.816Z,22.23
2023-05-15T06:11:44.853Z,22.25
2023-05-15T06:12:44.817Z,22.26
2023-05-15T06:13:44.834Z,22.27
2023-05-15T06:14:44.891Z,22.27
2023-05-15T06:15:44.797Z,22.28
2023-05-15T06:16:44.857Z,22.29
2023-05-15T06:17:44.831Z,22.30
2023-05-15T06:18:44.878Z,22.32
2023-05-15T06:19:44.793Z,22.32
2023-05-15T06:20:44.819Z,22.33
2023-05-15T06:21:44.948Z,22.35
2023-05-15T06:22:44.866Z,22.36
2023-05-15T06:23:44.901Z,22.37
2023-05-15T06:24:44.927Z,22.38
2023-05-15T06:25:44.942Z,22.38
2023-05-15T06:26:44.979Z,22.40
2023-05-15T06:27:45.002Z,22.42
2023-05-15T06:28:45.006Z,22.43
2023-05-15T06:29:45.019Z,22.44
2023-05-15T06:30:45.055Z,22.45
2023-05-15T06:31:45.061Z,22.46
2023-05-15T06:32:45.124Z,22.48
2023-05-15T06:33:45.110Z,22.49
2023-05-15T06:34:45.091Z,22.50
2023-05-15T06:35:45.134Z,22.51
2023-05-15T06:36:45.142Z,22.52
2023-05-15T06:37:45.136Z,22.54
2023-05-15T06:38:45.136Z,22.56
2023-05-15T06:39:45.160Z,22.57
2023-05-15T06:40:45.169Z,22.58
2023-05-15T06:41:45.180Z,22.60
2023-05-15T06:42:45.180Z,22.63
2023-05-15T06:43:45.177Z,22.65
2023-05-15T06:44:45.287Z,22.68
2023-05-15T06:45:45.268Z,22.71
2023-05-15T06:46:45.219Z,22.72
2023-05-15T06:47:45.212Z,22.74
2023-05-15T06:48:45.227Z,22.76
2023-05-15T06:49:45.203Z,22.76
2023-05-15T06:50:45.204Z,22.77
2023-05-15T06:51:45.187Z,22.79
2023-05-15T06:52:45.280Z,22.83
2023-05-15T06:53:45.163Z,22.83
2023-05-15T06:54:45.158Z,22.84
2023-05-15T06:55:46.100Z,22.85
2023-05-15T06:56:45.145Z,22.86
2023-05-15T06:57:45.144Z,22.87
2023-05-15T06:58:45.133Z,22.88
2023-05-15T06:59:45.138Z,22.89
2023-05-15T07:00:45.134Z,22.89
2023-05-15T07:01:45.192Z,22.90
2023-05-15T07:02:45.224Z,22.93
2023-05-15T07:03:45.112Z,22.93
2023-05-15T07:04:45.140Z,22.94
2023-05-15T07:05:45.155Z,22.95
2023-05-15T07:06:45.089Z,22.97
2023-05-15T07:07:45.539Z,22.98
2023-05-15T07:08:45.051Z,23.00
2023-05-15T07:09:45.073Z,23.01
2023-05-15T07:10:45.054Z,23.02
2023-05-15T07:11:45.017Z,23.01
2023-05-15T07:12:45.018Z,23.03
2023-05-15T07:13:45.059Z,23.04
2023-05-15T07:14:45.018Z,23.06
2023-05-15T07:15:45.036Z,23.05
2023-05-15T07:16:44.969Z,23.06
2023-05-15T07:17:44.991Z,23.06
2023-05-15T07:18:45.110Z,23.07
2023-05-15T07:19:44.905Z,23.08
2023-05-15T07:20:44.895Z,23.11
2023-05-15T07:21:44.911Z,23.12
2023-05-15T07:22:55.652Z,23.12
2023-05-15T07:23:44.848Z,23.13
2023-05-15T07:24:44.835Z,23.13
2023-05-15T07:25:46.099Z,23.14
2023-05-15T07:27:44.791Z,23.16
2023-05-15T07:28:44.774Z,23.18
2023-05-15T07:29:44.775Z,23.21
2023-05-15T07:30:44.932Z,23.21
2023-05-15T07:31:44.817Z,23.23
2023-05-15T07:32:44.746Z,23.23
2023-05-15T07:33:44.740Z,23.23
2023-05-15T07:34:44.686Z,23.23
2023-05-15T07:35:44.665Z,23.24
2023-05-15T07:36:44.658Z,23.25
2023-05-15T07:37:44.708Z,23.24
2023-05-15T07:38:44.611Z,23.21
2023-05-15T07:39:44.614Z,23.11
2023-05-15T07:40:44.575Z,23.06
2023-05-15T07:41:44.556Z,23.03
2023-05-15T07:42:44.538Z,23.01
2023-05-15T07:43:44.563Z,22.96
2023-05-15T07:44:46.537Z,22.93
2023-05-15T07:45:45.156Z,22.88
2023-05-15T07:46:44.578Z,22.81
2023-05-15T07:47:44.595Z,22.79
2023-05-15T07:48:44.544Z,22.77
2023-05-15T07:49:44.547Z,22.74
2023-05-15T07:50:44.545Z,22.71
2023-05-15T07:51:44.576Z,22.70
2023-05-15T07:52:44.599Z,22.66
2023-05-15T07:53:44.643Z,22.64
2023-05-15T07:54:44.615Z,22.60
2023-05-15T07:55:44.644Z,22.59
2023-05-15T07:56:44.649Z,22.58
2023-05-15T07:57:44.713Z,22.56
2023-05-15T07:58:44.766Z,22.53
2023-05-15T07:59:44.728Z,22.52
2023-05-15T08:00:44.784Z,22.50
2023-05-15T08:01:44.846Z,22.48
2023-05-15T08:02:45.103Z,22.47
2023-05-15T08:03:44.985Z,22.44
2023-05-15T08:04:44.959Z,22.42
2023-05-15T08:05:44.957Z,22.41
2023-05-15T08:06:45.001Z,22.41
2023-05-15T08:07:45.051Z,22.41
2023-05-15T08:08:45.159Z,22.42
2023-05-15T08:09:45.130Z,22.42
2023-05-15T08:10:45.174Z,22.43
2023-05-15T08:11:45.353Z,22.43
2023-05-15T08:12:45.263Z,22.44
2023-05-15T08:13:45.415Z,22.46
2023-05-15T08:14:45.464Z,22.48
2023-05-15T08:15:45.435Z,22.46
2023-05-15T08:16:45.400Z,22.47
2023-05-15T08:17:45.493Z,22.49
2023-05-15T08:18:45.475Z,22.48
2023-05-15T08:19:45.496Z,22.48
2023-05-15T08:20:45.545Z,22.46
2023-05-15T08:21:45.552Z,22.44
2023-05-15T08:22:45.580Z,22.42
2023-05-15T08:23:45.614Z,22.36
2023-05-15T08:24:45.676Z,22.31
2023-05-15T08:25:45.709Z,22.26
2023-05-15T08:26:45.767Z,22.17
2023-05-15T08:27:45.836Z,22.12
2023-05-15T08:28:45.885Z,22.08
2023-05-15T08:29:45.941Z,22.05
2023-05-15T08:30:46.006Z,22.03
2023-05-15T08:31:46.175Z,22.05
2023-05-15T08:32:46.167Z,22.10
2023-05-15T08:33:46.133Z,22.15
2023-05-15T08:34:46.146Z,22.24
2023-05-15T08:35:46.165Z,22.26
2023-05-15T08:36:46.119Z,22.28
2023-05-15T08:37:46.296Z,22.29
2023-05-15T08:38:46.125Z,22.31
2023-05-15T08:39:46.123Z,22.33
2023-05-15T08:40:46.112Z,22.35
2023-05-15T08:41:46.128Z,22.35
2023-05-15T08:42:46.113Z,22.36
2023-05-15T08:43:46.160Z,22.35
2023-05-15T08:44:46.209Z,22.35
2023-05-15T08:45:46.236Z,22.36
2023-05-15T08:46:46.310Z,22.37
2023-05-15T08:47:46.433Z,22.35
2023-05-15T08:48:46.346Z,22.31
2023-05-15T08:49:46.441Z,22.26
2023-05-15T08:50:46.477Z,22.17
2023-05-15T08:51:46.514Z,22.09
2023-05-15T08:52:46.566Z,22.02
2023-05-15T08:53:46.659Z,21.95
2023-05-15T08:54:48.279Z,21.89
2023-05-15T08:55:46.727Z,21.82
2023-05-15T08:56:46.805Z,21.77
2023-05-15T08:57:46.773Z,21.73
2023-05-15T08:58:46.798Z,21.68
2023-05-15T08:59:46.797Z,21.66
2023-05-15T09:00:46.805Z,21.69
2023-05-15T09:01:46.883Z,21.73
2023-05-15T09:02:46.925Z,21.75
2023-05-15T09:03:46.932Z,21.79
2023-05-15T09:04:46.890Z,21.81
2023-05-15T09:05:46.916Z,21.82
2023-05-15T09:06:46.916Z,21.83
2023-05-15T09:07:46.950Z,21.86
2023-05-15T09:08:46.956Z,21.87
2023-05-15T09:09:46.950Z,21.88
2023-05-15T09:10:46.957Z,21.92
2023-05-15T09:11:47.000Z,21.92
2023-05-15T09:12:46.968Z,21.91
2023-05-15T09:13:46.975Z,21.93
2023-05-15T09:14:46.972Z,21.97
2023-05-15T09:15:47.082Z,22.02
2023-05-15T09:16:47.064Z,22.03
2023-05-15T09:17:47.078Z,22.04
2023-05-15T09:18:47.167Z,22.03
2023-05-15T09:19:47.180Z,22.04
2023-05-15T09:20:47.252Z,22.03
2023-05-15T09:21:47.331Z,22.02
2023-05-15T09:22:47.469Z,22.05
2023-05-15T09:23:47.497Z,22.07
2023-05-15T09:24:47.548Z,22.08
2023-05-15T09:25:47.610Z,22.10
2023-05-15T09:26:47.686Z,22.13
2023-05-15T09:27:47.807Z,22.14
2023-05-15T09:28:47.793Z,22.17
2023-05-15T09:29:47.932Z,22.19
2023-05-15T09:30:47.910Z,22.20
2023-05-15T09:31:47.982Z,22.20
2023-05-15T09:32:48.056Z,22.18
2023-05-15T09:33:48.082Z,22.18
2023-05-15T09:34:48.152Z,22.19
2023-05-15T09:35:48.191Z,22.18
2023-05-15T09:36:48.267Z,22.17
2023-05-15T09:37:48.263Z,22.18
2023-05-15T09:38:48.452Z,22.19
2023-05-15T09:39:48.318Z,22.21
2023-05-15T09:40:48.327Z,22.23
2023-05-15T09:41:48.303Z,22.24
2023-05-15T09:42:48.456Z,22.27
2023-05-15T09:43:48.310Z,22.30
2023-05-15T09:44:48.297Z,22.31
2023-05-15T09:45:48.403Z,22.33
2023-05-15T09:46:48.392Z,22.35
2023-05-15T09:47:48.409Z,22.36
2023-05-15T09:48:48.339Z,22.38
2023-05-15T09:49:48.308Z,22.40
2023-05-15T09:50:48.318Z,22.40
2023-05-15T09:51:48.324Z,22.42
2023-05-15T09:52:48.321Z,22.43
2023-05-15T09:53:48.328Z,22.44
2023-05-15T09:54:50.221Z,22.45
2023-05-15T09:55:48.324Z,22.46
2023-05-15T09:56:48.329Z,22.47
2023-05-15T09:57:48.623Z,22.48
2023-05-15T09:58:48.337Z,22.49
2023-05-15T09:59:48.523Z,22.50
2023-05-15T10:00:49.462Z,22.50
2023-05-15T10:01:48.376Z,22.51
2023-05-15T10:02:48.343Z,22.51
2023-05-15T10:03:48.306Z,22.51
2023-05-15T10:04:48.394Z,22.53
2023-05-15T10:05:48.471Z,22.54
2023-05-15T10:06:48.319Z,22.54
2023-05-15T10:07:48.273Z,22.56
2023-05-15T10:08:48.290Z,22.56
2023-05-15T10:09:48.271Z,22.59
2023-05-15T10:10:48.555Z,22.60
2023-05-15T10:11:48.276Z,22.60
2023-05-15T10:12:48.432Z,22.60
2023-05-15T10:13:48.260Z,22.61
2023-05-15T10:14:48.252Z,22.62
2023-05-15T10:15:48.317Z,22.63
2023-05-15T10:16:48.265Z,22.63
2023-05-15T10:17:48.327Z,22.63
2023-05-15T10:18:48.286Z,22.63
2023-05-15T10:19:57.113Z,22.63
2023-05-15T10:20:49.273Z,22.63
2023-05-15T10:21:48.272Z,22.63
2023-05-15T10:22:48.296Z,22.64
2023-05-15T10:23:48.296Z,22.65
2023-05-15T10:24:48.310Z,22.65
2023-05-15T10:25:48.311Z,22.66
2023-05-15T10:26:48.309Z,22.67
2023-05-15T10:27:48.294Z,22.67
2023-05-15T10:28:48.263Z,22.67
2023-05-15T10:29:48.236Z,22.69
2023-05-15T10:30:48.310Z,22.69
2023-05-15T10:31:49.277Z,22.71
2023-05-15T10:32:48.266Z,22.73
2023-05-15T10:33:48.249Z,22.76
2023-05-15T10:34:48.222Z,22.79
2023-05-15T10:35:48.253Z,22.80
2023-05-15T10:36:48.266Z,22.83
2023-05-15T10:37:48.227Z,22.85
2023-05-15T10:38:48.231Z,22.88
2023-05-15T10:39:48.209Z,22.93
2023-05-15T10:40:48.238Z,22.97
2023-05-15T10:41:48.197Z,22.99
2023-05-15T10:42:48.240Z,23.00
2023-05-15T10:43:48.215Z,23.01
2023-05-15T10:44:48.204Z,23.01
2023-05-15T10:45:48.206Z,23.00
2023-05-15T10:46:48.687Z,23.00
2023-05-15T10:47:48.202Z,22.98
2023-05-15T10:48:48.275Z,22.98
2023-05-15T10:49:48.164Z,22.98
2023-05-15T10:50:48.146Z,22.97
2023-05-15T10:51:48.156Z,22.96
2023-05-15T10:52:48.146Z,22.97
2023-05-15T10:53:48.122Z,22.97
2023-05-15T10:54:48.113Z,22.96
2023-05-15T10:55:48.123Z,22.94
2023-05-15T10:56:49.365Z,22.93
2023-05-15T10:57:48.224Z,22.92
2023-05-15T10:58:48.228Z,22.91
2023-05-15T10:59:48.180Z,22.90
2023-05-15T11:00:48.208Z,22.91
2023-05-15T11:01:48.328Z,22.91
2023-05-15T11:02:48.216Z,22.90
2023-05-15T11:03:50.034Z,22.90
2023-05-15T11:04:48.291Z,22.89
2023-05-15T11:05:48.196Z,22.88
2023-05-15T11:06:48.249Z,22.85
2023-05-15T11:07:48.205Z,22.84
2023-05-15T11:08:48.189Z,22.84
2023-05-15T11:09:48.191Z,22.83
2023-05-15T11:10:48.176Z,22.83
2023-05-15T11:11:48.177Z,22.83
2023-05-15T11:12:48.190Z,22.82
2023-05-15T11:13:48.193Z,22.82
2023-05-15T11:14:48.190Z,22.82
2023-05-15T11:15:48.187Z,22.82
2023-05-15T11:16:48.225Z,22.82
2023-05-15T11:17:48.176Z,22.82
2023-05-15T11:18:48.212Z,22.82
2023-05-15T11:19:48.138Z,22.81
2023-05-15T11:20:48.131Z,22.81
2023-05-15T11:21:48.117Z,22.80
2023-05-15T11:22:48.136Z,22.80
2023-05-15T11:23:48.104Z,22.80
2023-05-15T11:24:48.128Z,22.80
2023-05-15T11:25:48.077Z,22.81
2023-05-15T11:26:48.074Z,22.80
2023-05-15T11:27:48.075Z,22.80
2023-05-15T11:28:48.140Z,22.80
2023-05-15T11:29:48.126Z,22.80
2023-05-15T11:30:48.102Z,22.81
2023-05-15T11:31:48.050Z,22.80
2023-05-15T11:32:48.094Z,22.80
2023-05-15T11:33:48.023Z,22.79
2023-05-15T11:34:48.033Z,22.79
2023-05-15T11:35:48.051Z,22.79
2023-05-15T11:36:48.010Z,22.79
2023-05-15T11:37:48.038Z,22.80
2023-05-15T11:38:48.035Z,22.79
2023-05-15T11:39:48.008Z,22.80
2023-05-15T11:40:48.031Z,22.79
2023-05-15T11:41:48.008Z,22.79
2023-05-15T11:42:48.008Z,22.79
2023-05-15T11:43:48.009Z,22.79
2023-05-15T11:44:47.982Z,22.78
2023-05-15T11:45:47.980Z,22.78
2023-05-15T11:46:48.001Z,22.79
2023-05-15T11:47:48.032Z,22.79
2023-05-15T11:48:48.138Z,22.80
2023-05-15T11:49:47.978Z,22.79
2023-05-15T11:50:47.984Z,22.79
2023-05-15T11:51:48.036Z,22.79
2023-05-15T11:52:47.964Z,22.79
2023-05-15T11:53:47.990Z,22.79
2023-05-15T11:54:47.965Z,22.79
2023-05-15T11:55:48.003Z,22.79
2023-05-15T11:56:47.963Z,22.80
2023-05-15T11:57:47.963Z,22.79
2023-05-15T11:58:47.979Z,22.79
2023-05-15T11:59:47.968Z,22.78
2023-05-15T12:00:47.968Z,22.78
2023-05-15T12:01:47.969Z,22.79
2023-05-15T12:02:48.019Z,22.79
2023-05-15T12:03:48.084Z,22.79
2023-05-15T12:04:48.093Z,22.79
2023-05-15T12:05:58.327Z,22.79
2023-05-15T12:06:49.032Z,22.78
2023-05-15T12:07:47.943Z,22.78
2023-05-15T12:08:47.945Z,22.77
2023-05-15T12:09:47.961Z,22.77
2023-05-15T12:10:47.916Z,22.76
2023-05-15T12:11:47.916Z,22.76
2023-05-15T12:12:47.917Z,22.76
2023-05-15T12:13:47.949Z,22.76
2023-05-15T12:14:47.890Z,22.76
2023-05-15T12:15:47.895Z,22.75
2023-05-15T12:16:48.120Z,22.75
2023-05-15T12:17:47.946Z,22.75
2023-05-15T12:18:47.952Z,22.74
2023-05-15T12:19:47.871Z,22.74
2023-05-15T12:20:47.885Z,22.74
2023-05-15T12:21:47.867Z,22.74
2023-05-15T12:22:47.882Z,22.75
2023-05-15T12:23:59.463Z,22.74
2023-05-15T12:24:48.844Z,22.73
2023-05-15T12:25:47.844Z,22.74
2023-05-15T12:26:47.835Z,22.75
2023-05-15T12:27:47.810Z,22.74
2023-05-15T12:28:47.819Z,22.75
2023-05-15T12:29:47.810Z,22.75
2023-05-15T12:30:47.814Z,22.75
2023-05-15T12:31:47.849Z,22.76
2023-05-15T12:32:47.874Z,22.75
2023-05-15T12:33:47.854Z,22.76
2023-05-15T12:34:47.817Z,22.76
2023-05-15T12:35:47.813Z,22.76
2023-05-15T12:36:47.814Z,22.75
2023-05-15T12:37:47.816Z,22.76
2023-05-15T12:38:47.834Z,22.75
2023-05-15T12:39:47.808Z,22.76
2023-05-15T12:40:47.823Z,22.76
2023-05-15T12:41:49.673Z,22.78
2023-05-15T12:42:47.808Z,22.80
2023-05-15T12:43:47.822Z,22.82
2023-05-15T12:44:47.802Z,22.85
2023-05-15T12:45:47.822Z,22.85
2023-05-15T12:46:47.791Z,22.87
2023-05-15T12:47:47.826Z,22.88
2023-05-15T12:48:47.798Z,22.89
2023-05-15T12:49:47.830Z,22.90
2023-05-15T12:50:47.763Z,22.91
2023-05-15T12:51:47.742Z,22.91
2023-05-15T12:52:47.798Z,22.92
2023-05-15T12:53:47.725Z,22.94